Schoolcraft, Michigan
Current Conditions -  °F | °C
As of 11:27 PM on Friday 24 Oct 2014 (Local Time) from KAZO Reporting Station
Haze Haze  
Wind Chill: 45°   Ceiling: Unl
Heat Index: 45°   Visibility: 1.2mi
Dew Point: 44°   Wind: 3mph
Humidity: 97%   Direction: 180°S
Pressure: 29.96"   Gusts: NA
Location:  42.11°N, 85.64°W
Report Text: KAZO 250327Z AUTO 18003KT 1 1/4SM BR SCT095 07/07 A2996 RMK AO2 T00720067
Loading
Personal Weather Stations






























Interactive Weather Map
Tropical Storm Tracking
New forecast layout! Learn more

10-Day Weather Forecast

Advertisements
Track Severe Weather on mobile